Time;durP1;ratioP1;P1;durP2;ratioP2;P2;SDS_P1;SDS_P2;PMS_P1;PMS_P2;Temp;Humidity;BMP_temperature;BMP_pressure;BME280_temperature;BME280_humidity;BME280_pressure;Samples;Min_cycle;Max_cycle;Signal;HPM_P1;HPM_P2
2021/04/28 00:01:17;;;;;;;3.90;2.90;;;;;;;;;;5109934;28;20432;-73
2021/04/28 00:03:43;;;;;;;6.40;2.40;;;;;;;;;;5122671;27;21124;-76
2021/04/28 00:06:09;;;;;;;3.13;2.80;;;;;;;;;;5110122;28;20186;-77
2021/04/28 00:08:35;;;;;;;4.35;3.10;;;;;;;;;;5097914;28;20841;-75
2021/04/28 00:11:01;;;;;;;4.35;3.03;;;;;;;;;;5130948;27;20178;-74
2021/04/28 00:13:27;;;;;;;4.18;2.80;;;;;;;;;;5118837;27;20691;-76
2021/04/28 00:15:53;;;;;;;3.45;2.58;;;;;;;;;;5117219;27;20550;-76
2021/04/28 00:18:20;;;;;;;2.92;2.40;;;;;;;;;;5124825;27;20206;-74
2021/04/28 00:20:47;;;;;;;3.75;2.95;;;;;;;;;;5117016;27;20184;-73
2021/04/28 00:23:13;;;;;;;3.08;2.78;;;;;;;;;;5128842;27;20304;-78
2021/04/28 00:25:39;;;;;;;2.90;2.43;;;;;;;;;;5110388;28;20269;-76
2021/04/28 00:28:05;;;;;;;3.58;2.97;;;;;;;;;;5110936;28;20840;-78
2021/04/28 00:30:32;;;;;;;4.00;3.30;;;;;;;;;;5110192;28;20208;-72
2021/04/28 00:32:58;;;;;;;4.55;3.28;;;;;;;;;;5104658;28;20193;-77
2021/04/28 00:35:24;;;;;;;4.57;3.25;;;;;;;;;;5109834;28;20224;-74
2021/04/28 00:37:50;;;;;;;4.45;2.95;;;;;;;;;;5107551;28;20206;-75
2021/04/28 00:40:18;;;;;;;4.35;2.88;;;;;;;;;;5118090;28;20189;-77
2021/04/28 00:42:45;;;;;;;3.28;2.78;;;;;;;;;;5117914;28;20677;-75
2021/04/28 00:45:12;;;;;;;6.53;2.70;;;;;;;;;;5110085;28;20531;-74
2021/04/28 00:47:38;;;;;;;3.50;2.80;;;;;;;;;;5119195;28;20540;-73
2021/04/28 00:50:05;;;;;;;2.97;2.67;;;;;;;;;;5118115;28;20302;-73
2021/04/28 00:52:32;;;;;;;3.20;2.75;;;;;;;;;;5124149;28;20447;-72
2021/04/28 00:54:58;;;;;;;3.40;2.95;;;;;;;;;;5108467;28;20178;-74
2021/04/28 00:57:24;;;;;;;3.65;2.72;;;;;;;;;;5110522;28;20225;-74
2021/04/28 00:59:50;;;;;;;4.60;2.80;;;;;;;;;;5130347;28;20232;-72
2021/04/28 01:02:16;;;;;;;6.45;3.58;;;;;;;;;;5122145;28;20395;-77
2021/04/28 01:04:43;;;;;;;4.35;2.85;;;;;;;;;;5113294;28;20206;-74
2021/04/28 01:07:10;;;;;;;5.95;2.72;;;;;;;;;;5106512;28;20218;-74
2021/04/28 01:09:38;;;;;;;5.00;2.75;;;;;;;;;;5109797;28;20187;-76
2021/04/28 01:12:04;;;;;;;3.78;3.38;;;;;;;;;;5112145;28;20232;-76
2021/04/28 01:14:31;;;;;;;5.93;3.65;;;;;;;;;;5119345;28;20181;-77
2021/04/28 01:16:58;;;;;;;5.22;3.00;;;;;;;;;;5117352;28;20242;-76
2021/04/28 01:19:24;;;;;;;4.85;2.83;;;;;;;;;;5121769;28;20170;-73
2021/04/28 01:21:51;;;;;;;8.20;3.20;;;;;;;;;;5111062;28;20197;-73
2021/04/28 01:24:18;;;;;;;4.72;2.92;;;;;;;;;;5120399;28;20290;-74
2021/04/28 01:26:44;;;;;;;4.70;2.75;;;;;;;;;;5107147;28;20170;-73
2021/04/28 01:29:10;;;;;;;4.05;2.92;;;;;;;;;;5122349;27;20526;-73
2021/04/28 01:31:36;;;;;;;5.70;3.17;;;;;;;;;;5116696;27;20603;-73
2021/04/28 01:34:04;;;;;;;3.05;2.60;;;;;;;;;;5116636;28;20623;-72
2021/04/28 01:36:34;;;;;;;3.50;2.72;;;;;;;;;;5124617;27;20527;-72
2021/04/28 01:39:03;;;;;;;3.10;2.67;;;;;;;;;;5127196;27;20202;-72
2021/04/28 01:41:29;;;;;;;3.95;3.30;;;;;;;;;;5137255;27;20174;-72
2021/04/28 01:43:56;;;;;;;3.50;2.90;;;;;;;;;;5136717;27;20545;-73
2021/04/28 01:46:25;;;;;;;3.40;2.92;;;;;;;;;;5135673;27;20268;-71
2021/04/28 01:48:51;;;;;;;4.00;2.35;;;;;;;;;;5125894;27;20191;-72
2021/04/28 01:51:17;;;;;;;4.55;2.90;;;;;;;;;;5121726;27;20173;-73
2021/04/28 01:53:44;;;;;;;3.30;2.88;;;;;;;;;;5136786;27;20178;-72
2021/04/28 01:56:10;;;;;;;3.55;3.00;;;;;;;;;;5130492;27;20182;-72
2021/04/28 01:58:38;;;;;;;3.85;3.05;;;;;;;;;;5128058;27;20202;-72
2021/04/28 02:01:05;;;;;;;3.55;2.95;;;;;;;;;;5136670;27;20631;-75
2021/04/28 02:03:31;;;;;;;3.20;2.90;;;;;;;;;;5136487;27;20198;-72
2021/04/28 02:05:59;;;;;;;3.83;2.90;;;;;;;;;;5135115;27;20238;-73
2021/04/28 02:08:25;;;;;;;3.13;2.42;;;;;;;;;;5136588;27;20189;-73
2021/04/28 02:10:51;;;;;;;3.55;2.75;;;;;;;;;;5136671;27;20562;-74
2021/04/28 02:13:19;;;;;;;6.73;2.67;;;;;;;;;;5136025;27;20178;-72
2021/04/28 02:15:45;;;;;;;4.03;2.60;;;;;;;;;;5121740;27;20489;-73
2021/04/28 02:18:11;;;;;;;3.53;2.83;;;;;;;;;;5123129;27;20558;-74
2021/04/28 02:20:38;;;;;;;4.00;2.83;;;;;;;;;;5136159;27;20265;-73
2021/04/28 02:23:04;;;;;;;3.58;2.72;;;;;;;;;;5136106;27;21014;-73
2021/04/28 02:25:30;;;;;;;3.15;2.70;;;;;;;;;;5123014;27;20540;-72
2021/04/28 02:27:56;;;;;;;2.90;2.40;;;;;;;;;;5107615;27;20649;-72
2021/04/28 02:30:24;;;;;;;3.07;2.70;;;;;;;;;;5115127;28;20170;-74
2021/04/28 02:32:50;;;;;;;5.20;2.65;;;;;;;;;;5129402;27;20863;-74
2021/04/28 02:35:17;;;;;;;3.70;2.70;;;;;;;;;;5113679;28;20273;-73
2021/04/28 02:37:45;;;;;;;5.07;2.83;;;;;;;;;;5126067;27;20197;-73
2021/04/28 02:40:13;;;;;;;3.67;2.80;;;;;;;;;;5135191;27;20511;-74
2021/04/28 02:42:47;;;;;;;5.53;2.70;;;;;;;;;;5133501;27;20273;-74
2021/04/28 02:45:15;;;;;;;3.75;2.63;;;;;;;;;;5136286;27;20197;-72
2021/04/28 02:47:42;;;;;;;5.43;3.15;;;;;;;;;;5108842;27;20199;-72
2021/04/28 02:50:09;;;;;;;3.45;2.80;;;;;;;;;;5135882;27;20665;-71
2021/04/28 02:52:35;;;;;;;4.13;2.95;;;;;;;;;;5118778;27;20178;-72
2021/04/28 02:55:02;;;;;;;3.80;2.90;;;;;;;;;;5120267;27;20189;-72
2021/04/28 02:57:28;;;;;;;5.50;2.83;;;;;;;;;;5116715;27;20198;-73
2021/04/28 02:59:54;;;;;;;3.58;2.90;;;;;;;;;;5114890;27;20539;-73
2021/04/28 03:02:21;;;;;;;3.13;2.78;;;;;;;;;;5117600;27;20543;-72
2021/04/28 03:04:47;;;;;;;4.53;3.10;;;;;;;;;;5123566;27;20202;-73
2021/04/28 03:07:14;;;;;;;3.85;3.53;;;;;;;;;;5133076;27;20630;-73
2021/04/28 03:09:40;;;;;;;3.90;3.00;;;;;;;;;;5120017;27;20178;-73
2021/04/28 03:12:06;;;;;;;3.47;3.10;;;;;;;;;;5135533;27;20170;-74
2021/04/28 03:14:32;;;;;;;3.05;2.75;;;;;;;;;;5122376;27;20191;-73
2021/04/28 03:16:58;;;;;;;4.90;3.50;;;;;;;;;;5130365;27;20670;-74
2021/04/28 03:19:24;;;;;;;5.18;3.30;;;;;;;;;;5135031;27;20169;-73
2021/04/28 03:21:51;;;;;;;4.45;3.20;;;;;;;;;;5123668;27;20247;-72
2021/04/28 03:24:17;;;;;;;4.13;3.20;;;;;;;;;;5107478;28;20278;-73
2021/04/28 03:26:43;;;;;;;7.68;3.60;;;;;;;;;;5123689;27;20211;-73
2021/04/28 03:29:09;;;;;;;4.15;3.75;;;;;;;;;;5114400;27;20167;-73
2021/04/28 03:31:36;;;;;;;5.55;3.70;;;;;;;;;;5117970;27;20174;-73
2021/04/28 03:34:02;;;;;;;3.50;3.20;;;;;;;;;;5125074;27;20193;-73
2021/04/28 03:36:29;;;;;;;3.70;3.30;;;;;;;;;;5117721;27;20178;-71
2021/04/28 03:38:55;;;;;;;4.00;3.20;;;;;;;;;;5134622;27;20285;-73
2021/04/28 03:41:22;;;;;;;5.00;2.88;;;;;;;;;;5118630;27;20190;-73
2021/04/28 03:43:48;;;;;;;3.70;3.28;;;;;;;;;;5131045;27;20538;-71
2021/04/28 03:46:16;;;;;;;4.27;3.40;;;;;;;;;;5127758;27;20174;-76
2021/04/28 03:48:42;;;;;;;3.65;3.22;;;;;;;;;;5109374;27;20489;-72
2021/04/28 03:51:08;;;;;;;4.70;4.10;;;;;;;;;;5131513;27;20188;-70
2021/04/28 03:53:34;;;;;;;5.18;3.25;;;;;;;;;;5115361;27;20397;-72
2021/04/28 03:56:00;;;;;;;4.30;3.50;;;;;;;;;;5113439;28;20539;-72
2021/04/28 03:58:26;;;;;;;6.63;4.00;;;;;;;;;;5102228;28;20869;-72
2021/04/28 04:00:52;;;;;;;4.20;3.63;;;;;;;;;;5114686;27;20178;-73
2021/04/28 04:03:17;;;;;;;3.80;3.40;;;;;;;;;;5119370;27;20448;-73
2021/04/28 04:05:43;;;;;;;6.83;4.20;;;;;;;;;;5114666;27;20506;-73
2021/04/28 04:08:09;;;;;;;5.28;3.97;;;;;;;;;;5123088;27;20781;-73
2021/04/28 04:10:35;;;;;;;4.60;3.30;;;;;;;;;;5118905;27;20170;-72
2021/04/28 04:13:01;;;;;;;4.30;3.50;;;;;;;;;;5132812;27;20370;-72
2021/04/28 04:15:27;;;;;;;6.40;4.75;;;;;;;;;;5120659;27;20905;-73
2021/04/28 04:17:53;;;;;;;4.20;3.80;;;;;;;;;;5124605;27;20229;-72
2021/04/28 04:20:19;;;;;;;7.47;3.83;;;;;;;;;;5129457;27;20571;-73
2021/04/28 04:22:45;;;;;;;6.80;3.67;;;;;;;;;;5134264;27;20415;-73
2021/04/28 04:25:11;;;;;;;5.30;3.77;;;;;;;;;;5116121;27;20427;-72
2021/04/28 04:27:38;;;;;;;5.28;3.90;;;;;;;;;;5120550;27;20880;-72
2021/04/28 04:30:05;;;;;;;5.25;4.00;;;;;;;;;;5110077;28;20163;-73
2021/04/28 04:32:31;;;;;;;4.40;4.00;;;;;;;;;;5115045;27;20185;-73
2021/04/28 04:34:57;;;;;;;4.40;3.40;;;;;;;;;;5114834;28;20199;-72
2021/04/28 04:37:23;;;;;;;4.97;3.88;;;;;;;;;;5126062;28;20433;-72
2021/04/28 04:39:49;;;;;;;4.65;4.07;;;;;;;;;;5117210;28;20253;-71
2021/04/28 04:42:15;;;;;;;5.00;3.57;;;;;;;;;;5116372;28;20261;-71
2021/04/28 04:44:41;;;;;;;4.85;3.75;;;;;;;;;;5108535;28;20467;-73
2021/04/28 04:47:07;;;;;;;4.77;3.90;;;;;;;;;;5113574;28;20224;-73
2021/04/28 04:49:33;;;;;;;5.75;3.90;;;;;;;;;;5124224;28;20424;-72
2021/04/28 04:51:59;;;;;;;5.55;4.15;;;;;;;;;;5124394;28;20204;-71
2021/04/28 04:54:25;;;;;;;5.05;4.13;;;;;;;;;;5123144;28;20258;-73
2021/04/28 04:56:51;;;;;;;5.00;4.53;;;;;;;;;;5111112;28;20175;-73
2021/04/28 04:59:17;;;;;;;5.10;4.47;;;;;;;;;;5113190;28;20186;-73
2021/04/28 05:01:43;;;;;;;5.07;4.38;;;;;;;;;;5123835;28;20398;-72
2021/04/28 05:04:09;;;;;;;7.05;3.83;;;;;;;;;;5135038;27;20276;-73
2021/04/28 05:06:35;;;;;;;5.15;4.10;;;;;;;;;;5115539;27;20191;-73
2021/04/28 05:09:01;;;;;;;4.90;4.20;;;;;;;;;;5133064;27;20243;-72
2021/04/28 05:11:27;;;;;;;5.20;4.27;;;;;;;;;;5119343;27;20417;-71
2021/04/28 05:13:53;;;;;;;6.50;4.63;;;;;;;;;;5116067;27;20416;-72
2021/04/28 05:16:18;;;;;;;7.50;4.27;;;;;;;;;;5117046;28;20400;-72
2021/04/28 05:18:44;;;;;;;5.43;4.60;;;;;;;;;;5121077;27;20477;-74
2021/04/28 05:21:10;;;;;;;6.07;4.13;;;;;;;;;;5131465;27;20432;-73
2021/04/28 05:23:36;;;;;;;6.03;4.80;;;;;;;;;;5107630;27;20440;-72
2021/04/28 05:26:02;;;;;;;8.30;5.40;;;;;;;;;;5105106;28;20399;-72
2021/04/28 05:28:28;;;;;;;5.03;4.53;;;;;;;;;;5119775;27;20426;-75
2021/04/28 05:30:54;;;;;;;5.63;5.00;;;;;;;;;;5109080;28;20673;-72
2021/04/28 05:33:20;;;;;;;5.93;4.83;;;;;;;;;;5125271;27;20539;-72
2021/04/28 05:35:47;;;;;;;6.78;5.00;;;;;;;;;;5109835;28;20425;-73
2021/04/28 05:38:12;;;;;;;6.22;5.32;;;;;;;;;;5118033;27;20202;-73
2021/04/28 05:40:38;;;;;;;9.33;5.30;;;;;;;;;;5105614;27;20175;-73
2021/04/28 05:43:04;;;;;;;6.30;5.30;;;;;;;;;;5119774;27;20454;-74
2021/04/28 05:45:41;;;;;;;9.10;5.07;;;;;;;;;;5118626;27;20875;-72
2021/04/28 05:48:08;;;;;;;6.50;5.47;;;;;;;;;;5121491;27;20435;-72
2021/04/28 05:50:34;;;;;;;7.32;6.15;;;;;;;;;;5137124;27;20170;-73
2021/04/28 05:53:00;;;;;;;6.80;5.85;;;;;;;;;;5125680;27;20175;-73
2021/04/28 05:55:26;;;;;;;8.00;5.50;;;;;;;;;;5109547;28;20636;-72
2021/04/28 05:57:52;;;;;;;6.13;5.53;;;;;;;;;;5118944;27;20218;-74
2021/04/28 06:00:18;;;;;;;8.33;7.47;;;;;;;;;;5110310;27;20420;-72
2021/04/28 06:02:44;;;;;;;8.23;5.80;;;;;;;;;;5133102;27;20476;-73
2021/04/28 06:05:11;;;;;;;6.15;5.55;;;;;;;;;;5126715;27;20244;-72
2021/04/28 06:07:37;;;;;;;5.22;4.70;;;;;;;;;;5115747;27;20195;-73
2021/04/28 06:10:03;;;;;;;7.20;5.20;;;;;;;;;;5113544;27;20655;-74
2021/04/28 06:12:29;;;;;;;7.00;5.30;;;;;;;;;;5133668;27;20379;-74
2021/04/28 06:14:55;;;;;;;6.53;5.63;;;;;;;;;;5112165;27;20505;-72
2021/04/28 06:17:21;;;;;;;5.97;5.23;;;;;;;;;;5105331;28;20768;-73
2021/04/28 06:19:47;;;;;;;9.37;6.07;;;;;;;;;;5127109;27;20750;-74
2021/04/28 06:22:13;;;;;;;8.27;6.23;;;;;;;;;;5121621;27;20386;-74
2021/04/28 06:24:39;;;;;;;11.20;5.50;;;;;;;;;;5136241;27;20433;-74
2021/04/28 06:27:05;;;;;;;6.35;5.75;;;;;;;;;;5135062;27;20437;-74
2021/04/28 06:29:31;;;;;;;6.10;5.60;;;;;;;;;;5115315;28;20671;-74
2021/04/28 06:31:57;;;;;;;7.90;5.37;;;;;;;;;;5132915;27;20261;-73
2021/04/28 06:34:23;;;;;;;9.02;5.65;;;;;;;;;;5115508;28;20400;-73
2021/04/28 06:36:50;;;;;;;9.23;5.80;;;;;;;;;;5110672;28;20187;-73
2021/04/28 06:39:16;;;;;;;7.53;5.95;;;;;;;;;;5115362;28;20178;-73
2021/04/28 06:41:45;;;;;;;8.60;5.85;;;;;;;;;;5128940;27;20170;-73
2021/04/28 06:44:11;;;;;;;8.85;5.20;;;;;;;;;;5102863;27;20195;-73
2021/04/28 06:46:37;;;;;;;7.75;6.05;;;;;;;;;;5118950;27;20285;-73
2021/04/28 06:49:04;;;;;;;6.70;5.75;;;;;;;;;;5106625;28;20265;-74
2021/04/28 06:51:30;;;;;;;7.32;5.53;;;;;;;;;;5110977;27;20186;-73
2021/04/28 06:53:56;;;;;;;5.80;4.97;;;;;;;;;;5105935;27;20179;-71
2021/04/28 06:56:22;;;;;;;7.10;5.68;;;;;;;;;;5114720;27;20415;-73
2021/04/28 06:58:50;;;;;;;9.80;6.20;;;;;;;;;;5130238;27;20745;-73
2021/04/28 07:01:16;;;;;;;9.02;5.95;;;;;;;;;;5131757;27;20276;-73
2021/04/28 07:03:42;;;;;;;6.90;5.35;;;;;;;;;;5131534;27;20209;-73
2021/04/28 07:06:11;;;;;;;7.77;5.70;;;;;;;;;;5123962;27;20237;-73
2021/04/28 07:08:37;;;;;;;6.85;5.70;;;;;;;;;;5128951;27;20443;-73
2021/04/28 07:11:03;;;;;;;6.90;6.30;;;;;;;;;;5131528;27;20178;-74
2021/04/28 07:13:29;;;;;;;6.95;6.25;;;;;;;;;;5118871;27;20283;-72
2021/04/28 07:15:55;;;;;;;6.50;5.90;;;;;;;;;;5117626;27;20178;-73
2021/04/28 07:18:21;;;;;;;8.30;5.93;;;;;;;;;;5109561;27;20704;-73
2021/04/28 07:20:47;;;;;;;7.03;6.33;;;;;;;;;;5126616;27;20399;-74
2021/04/28 07:23:13;;;;;;;7.10;6.10;;;;;;;;;;5110584;28;20427;-73
2021/04/28 07:25:39;;;;;;;7.70;5.87;;;;;;;;;;5126317;27;20755;-74
2021/04/28 07:28:05;;;;;;;6.75;6.05;;;;;;;;;;5120804;27;21021;-72
2021/04/28 07:30:32;;;;;;;6.93;6.28;;;;;;;;;;5101347;28;20207;-72
2021/04/28 07:32:57;;;;;;;9.95;6.93;;;;;;;;;;5127530;27;20185;-72
2021/04/28 07:35:24;;;;;;;6.10;5.50;;;;;;;;;;5097045;27;20182;-72
2021/04/28 07:37:50;;;;;;;9.73;6.57;;;;;;;;;;5124339;27;20406;-73
2021/04/28 07:40:17;;;;;;;8.75;6.07;;;;;;;;;;5117452;27;20181;-72
2021/04/28 07:42:43;;;;;;;6.70;6.00;;;;;;;;;;5116293;27;20586;-72
2021/04/28 07:45:10;;;;;;;8.35;6.45;;;;;;;;;;5129622;27;20231;-72
2021/04/28 07:47:36;;;;;;;7.47;6.60;;;;;;;;;;5116772;27;20702;-73
2021/04/28 07:50:02;;;;;;;7.60;6.80;;;;;;;;;;5104452;27;20179;-72
2021/04/28 07:52:28;;;;;;;7.28;6.65;;;;;;;;;;5122704;27;20227;-73
2021/04/28 07:54:54;;;;;;;6.67;6.00;;;;;;;;;;5101546;28;20183;-73
2021/04/28 07:57:20;;;;;;;8.30;6.10;;;;;;;;;;5128914;27;20496;-73
2021/04/28 07:59:46;;;;;;;6.60;5.60;;;;;;;;;;5118897;27;20436;-73
2021/04/28 08:02:13;;;;;;;6.35;5.75;;;;;;;;;;5121949;27;20450;-73
2021/04/28 08:04:40;;;;;;;8.45;6.60;;;;;;;;;;5109765;28;20236;-72
2021/04/28 08:07:06;;;;;;;9.18;6.00;;;;;;;;;;5119620;27;20250;-72
2021/04/28 08:09:32;;;;;;;7.20;5.75;;;;;;;;;;5115244;27;20634;-73
2021/04/28 08:11:58;;;;;;;6.60;5.90;;;;;;;;;;5117027;27;20229;-73
2021/04/28 08:14:24;;;;;;;6.70;6.10;;;;;;;;;;5117206;27;20404;-72
2021/04/28 08:16:50;;;;;;;6.90;5.50;;;;;;;;;;5110903;27;20545;-72
2021/04/28 08:19:16;;;;;;;7.13;6.30;;;;;;;;;;5130518;27;20426;-72
2021/04/28 08:21:42;;;;;;;6.80;5.70;;;;;;;;;;5108681;27;20480;-74
2021/04/28 08:24:08;;;;;;;7.90;6.17;;;;;;;;;;5122265;27;20462;-73
2021/04/28 08:26:34;;;;;;;6.80;6.20;;;;;;;;;;5109481;28;20444;-72
2021/04/28 08:29:00;;;;;;;6.87;6.27;;;;;;;;;;5104886;28;20214;-73
2021/04/28 08:31:26;;;;;;;5.97;5.47;;;;;;;;;;5106808;27;20918;-72
2021/04/28 08:33:52;;;;;;;9.80;5.63;;;;;;;;;;5114576;27;20415;-73
2021/04/28 08:36:18;;;;;;;7.00;6.20;;;;;;;;;;5123373;27;20186;-73
2021/04/28 08:38:44;;;;;;;6.43;5.93;;;;;;;;;;5107140;28;20591;-73
2021/04/28 08:41:12;;;;;;;6.63;5.97;;;;;;;;;;5122895;28;20425;-73
2021/04/28 08:43:38;;;;;;;6.43;5.85;;;;;;;;;;5115661;28;20462;-73
2021/04/28 08:46:05;;;;;;;7.95;6.13;;;;;;;;;;5120737;28;20575;-73
2021/04/28 08:48:32;;;;;;;9.35;6.15;;;;;;;;;;5116606;28;20285;-72
2021/04/28 08:50:59;;;;;;;7.20;6.50;;;;;;;;;;5122518;28;20178;-72
2021/04/28 08:53:27;;;;;;;6.43;5.83;;;;;;;;;;5108291;28;20543;-72
2021/04/28 08:55:53;;;;;;;9.47;6.23;;;;;;;;;;5120853;28;20530;-75
2021/04/28 08:58:21;;;;;;;7.23;5.90;;;;;;;;;;5108126;28;20567;-72
2021/04/28 09:00:47;;;;;;;8.27;6.20;;;;;;;;;;5103068;28;20922;-73
2021/04/28 09:03:16;;;;;;;6.90;6.30;;;;;;;;;;5117640;28;20475;-72
2021/04/28 09:05:43;;;;;;;6.50;5.57;;;;;;;;;;5118079;28;20437;-72
2021/04/28 09:08:10;;;;;;;6.90;6.20;;;;;;;;;;5119260;28;20427;-73
2021/04/28 09:10:36;;;;;;;7.07;5.67;;;;;;;;;;5124250;28;20432;-73
2021/04/28 09:13:04;;;;;;;6.30;5.70;;;;;;;;;;5111001;28;20418;-74
2021/04/28 09:15:36;;;;;;;6.77;6.07;;;;;;;;;;5117783;28;20404;-73
2021/04/28 09:18:02;;;;;;;7.47;6.00;;;;;;;;;;5113258;28;20801;-73
2021/04/28 09:20:39;;;;;;;8.67;6.50;;;;;;;;;;5115314;28;20421;-73
2021/04/28 09:23:05;;;;;;;6.90;6.20;;;;;;;;;;5109130;28;20550;-72
2021/04/28 09:25:34;;;;;;;6.80;6.20;;;;;;;;;;5108449;28;20421;-72
2021/04/28 09:28:19;;;;;;;6.33;5.53;;;;;;;;;;5115844;28;20436;-73
2021/04/28 09:30:45;;;;;;;5.57;5.07;;;;;;;;;;5120733;28;20419;-71
2021/04/28 09:33:12;;;;;;;5.80;5.30;;;;;;;;;;5129727;28;20444;-73
2021/04/28 09:35:38;;;;;;;6.20;5.60;;;;;;;;;;5115012;28;20455;-73
2021/04/28 09:38:04;;;;;;;5.87;5.33;;;;;;;;;;5125125;28;20440;-72
2021/04/28 09:41:00;;;;;;;6.33;5.63;;;;;;;;;;5109307;28;20414;-72
2021/04/28 09:43:38;;;;;;;6.00;5.50;;;;;;;;;;5095331;28;20522;-73
2021/04/28 09:46:04;;;;;;;5.43;5.03;;;;;;;;;;5114698;28;20767;-73
2021/04/28 09:48:30;;;;;;;6.40;5.47;;;;;;;;;;5112687;28;20444;-73
2021/04/28 09:51:04;;;;;;;6.20;5.63;;;;;;;;;;5117215;27;20755;-73
2021/04/28 09:53:30;;;;;;;6.43;5.93;;;;;;;;;;5109903;27;20515;-73
2021/04/28 09:55:56;;;;;;;6.93;5.90;;;;;;;;;;5119222;27;20920;-73
2021/04/28 09:58:40;;;;;;;6.93;6.30;;;;;;;;;;5106000;27;20452;-72
2021/04/28 10:01:06;;;;;;;6.23;5.73;;;;;;;;;;5102949;28;20421;-74
2021/04/28 10:03:45;;;;;;;6.17;5.67;;;;;;;;;;5121823;27;20466;-74
2021/04/28 10:06:11;;;;;;;7.80;5.97;;;;;;;;;;5131449;27;20803;-74
2021/04/28 10:08:37;;;;;;;6.50;6.00;;;;;;;;;;5115262;27;20488;-73
2021/04/28 10:11:03;;;;;;;6.10;5.70;;;;;;;;;;5123632;27;20427;-73
2021/04/28 10:13:35;;;;;;;6.50;5.90;;;;;;;;;;5119356;27;20419;-72
2021/04/28 10:16:01;;;;;;;6.57;5.87;;;;;;;;;;5110054;27;20432;-73
2021/04/28 10:18:30;;;;;;;7.10;6.50;;;;;;;;;;5104704;28;20531;-73
2021/04/28 10:20:56;;;;;;;6.50;5.50;;;;;;;;;;5116688;27;20415;-74
2021/04/28 10:23:24;;;;;;;7.17;6.57;;;;;;;;;;5124610;27;20460;-72
2021/04/28 10:25:50;;;;;;;6.93;5.73;;;;;;;;;;5111777;27;20452;-73
2021/04/28 10:28:17;;;;;;;6.50;5.90;;;;;;;;;;5115119;27;20445;-70
2021/04/28 10:30:44;;;;;;;6.60;6.20;;;;;;;;;;5111625;28;20766;-72
2021/04/28 10:33:19;;;;;;;7.03;6.33;;;;;;;;;;5107627;28;20822;-73
2021/04/28 10:35:45;;;;;;;7.93;7.33;;;;;;;;;;5110591;28;20427;-73
2021/04/28 10:38:11;;;;;;;6.40;5.80;;;;;;;;;;5108566;28;20444;-73
2021/04/28 10:40:38;;;;;;;6.70;6.30;;;;;;;;;;5111610;28;20955;-73
2021/04/28 10:43:11;;;;;;;6.87;6.27;;;;;;;;;;5105987;28;20453;-73
2021/04/28 10:45:37;;;;;;;7.40;6.90;;;;;;;;;;5105831;28;20428;-74
2021/04/28 10:48:04;;;;;;;7.73;7.03;;;;;;;;;;5110645;28;21212;-72
2021/04/28 10:50:33;;;;;;;7.90;7.20;;;;;;;;;;5111675;28;20789;-73
2021/04/28 10:53:05;;;;;;;7.43;5.73;;;;;;;;;;5101327;28;20921;-72
2021/04/28 10:55:37;;;;;;;6.30;5.70;;;;;;;;;;5111450;28;20416;-73
2021/04/28 10:58:03;;;;;;;7.30;6.70;;;;;;;;;;5104016;28;20437;-73
2021/04/28 11:00:29;;;;;;;7.57;7.07;;;;;;;;;;5111589;28;20408;-74
2021/04/28 11:02:55;;;;;;;7.03;6.63;;;;;;;;;;5105105;28;20916;-73
2021/04/28 11:05:27;;;;;;;7.60;7.00;;;;;;;;;;5109521;28;20451;-72
2021/04/28 11:07:54;;;;;;;8.67;8.00;;;;;;;;;;5110561;28;20528;-73
2021/04/28 11:10:24;;;;;;;8.43;7.73;;;;;;;;;;5109397;28;20449;-72
2021/04/28 11:13:09;;;;;;;8.37;7.67;;;;;;;;;;5112612;27;20409;-72
2021/04/28 11:15:50;;;;;;;8.67;8.03;;;;;;;;;;5108323;28;20448;-73
2021/04/28 11:18:29;;;;;;;8.10;7.43;;;;;;;;;;5107597;28;21004;-74
2021/04/28 11:21:12;;;;;;;7.70;7.10;;;;;;;;;;5110730;28;20429;-73
2021/04/28 11:23:38;;;;;;;8.57;7.97;;;;;;;;;;5109070;28;20471;-73
2021/04/28 11:26:23;;;;;;;9.17;8.57;;;;;;;;;;5110518;28;20451;-73
2021/04/28 11:28:49;;;;;;;8.53;7.83;;;;;;;;;;5109111;28;20448;-73
2021/04/28 11:31:23;;;;;;;7.63;7.13;;;;;;;;;;5109188;28;20427;-72
2021/04/28 11:33:49;;;;;;;8.60;8.00;;;;;;;;;;5110150;28;20439;-73
2021/04/28 11:36:16;;;;;;;9.73;8.93;;;;;;;;;;5110313;28;20424;-73
2021/04/28 11:38:45;;;;;;;10.13;9.23;;;;;;;;;;5110327;28;20432;-73
2021/04/28 11:41:15;;;;;;;9.03;8.50;;;;;;;;;;5110499;28;21300;-72
2021/04/28 11:43:41;;;;;;;9.80;8.97;;;;;;;;;;5110234;28;20956;-73
2021/04/28 11:46:43;;;;;;;9.40;8.60;;;;;;;;;;5101053;28;20425;-73
2021/04/28 11:49:09;;;;;;;9.17;8.57;;;;;;;;;;5058216;28;20437;-73
2021/04/28 11:51:35;;;;;;;10.00;9.30;;;;;;;;;;5101188;28;20435;-75
2021/04/28 11:54:03;;;;;;;9.40;8.70;;;;;;;;;;5109304;28;20511;-74
2021/04/28 11:56:43;;;;;;;9.30;8.60;;;;;;;;;;5110208;28;20800;-74
2021/04/28 11:59:23;;;;;;;8.63;8.03;;;;;;;;;;5119614;27;20500;-75
2021/04/28 12:01:54;;;;;;;10.20;9.37;;;;;;;;;;5103717;27;20422;-74
2021/04/28 12:04:26;;;;;;;10.30;9.50;;;;;;;;;;5130580;27;20898;-74
2021/04/28 12:06:53;;;;;;;9.07;8.37;;;;;;;;;;5129436;27;20442;-73
2021/04/28 12:09:36;;;;;;;9.87;8.93;;;;;;;;;;5119636;27;20462;-74
2021/04/28 12:12:09;;;;;;;10.90;9.90;;;;;;;;;;5121935;27;20424;-74
2021/04/28 12:14:35;;;;;;;10.53;9.73;;;;;;;;;;5120636;27;20420;-75
2021/04/28 12:17:01;;;;;;;10.73;9.57;;;;;;;;;;5122112;27;20443;-74
2021/04/28 12:19:28;;;;;;;10.83;9.93;;;;;;;;;;5125841;27;20420;-79
2021/04/28 12:21:56;;;;;;;10.73;9.60;;;;;;;;;;5105024;28;20432;-75
2021/04/28 12:24:25;;;;;;;10.53;9.73;;;;;;;;;;5117884;27;21002;-76
2021/04/28 12:27:05;;;;;;;10.43;9.73;;;;;;;;;;5111098;27;20756;-78
2021/04/28 12:29:31;;;;;;;10.83;10.07;;;;;;;;;;5099960;28;20420;-80
2021/04/28 12:31:56;;;;;;;10.80;10.03;;;;;;;;;;5120001;27;20474;-79
2021/04/28 12:34:22;;;;;;;10.23;9.43;;;;;;;;;;5111265;27;20424;-78
2021/04/28 12:36:48;;;;;;;9.80;9.10;;;;;;;;;;5126329;28;20426;-78
2021/04/28 12:39:25;;;;;;;10.50;9.70;;;;;;;;;;5123887;28;20417;-78
2021/04/28 12:41:52;;;;;;;11.57;10.47;;;;;;;;;;5127607;28;20414;-77
2021/04/28 12:44:18;;;;;;;10.47;9.70;;;;;;;;;;5129965;28;20494;-77
2021/04/28 12:46:45;;;;;;;11.43;10.53;;;;;;;;;;5130081;28;20821;-78
2021/04/28 12:49:11;;;;;;;11.50;10.50;;;;;;;;;;5114821;27;20408;-80
2021/04/28 12:51:50;;;;;;;11.50;10.60;;;;;;;;;;5128193;28;20507;-77
2021/04/28 12:54:25;;;;;;;12.13;11.10;;;;;;;;;;5130364;28;20423;-80
2021/04/28 12:56:51;;;;;;;11.63;10.63;;;;;;;;;;5130143;28;20415;-78
2021/04/28 12:59:24;;;;;;;12.30;11.20;;;;;;;;;;5130065;28;20879;-74
2021/04/28 13:01:57;;;;;;;11.97;11.00;;;;;;;;;;5129027;28;20783;-78
2021/04/28 13:04:23;;;;;;;12.10;10.90;;;;;;;;;;5127337;28;20463;-76
2021/04/28 13:06:50;;;;;;;11.50;10.47;;;;;;;;;;5105678;28;20442;-78
2021/04/28 13:09:16;;;;;;;11.73;10.53;;;;;;;;;;5110383;28;20413;-77
2021/04/28 13:11:43;;;;;;;15.00;12.03;;;;;;;;;;5118886;28;20434;-75
2021/04/28 13:14:15;;;;;;;12.43;11.33;;;;;;;;;;5120078;28;20427;-77
2021/04/28 13:16:53;;;;;;;13.97;11.33;;;;;;;;;;5119443;28;20507;-77
2021/04/28 13:19:26;;;;;;;12.13;10.87;;;;;;;;;;5111340;28;20436;-75
2021/04/28 13:21:52;;;;;;;13.07;11.87;;;;;;;;;;5109322;28;20499;-76
2021/04/28 13:24:35;;;;;;;12.53;11.10;;;;;;;;;;5122852;28;20905;-76
2021/04/28 13:27:02;;;;;;;13.50;12.10;;;;;;;;;;5115034;27;20435;-76
2021/04/28 13:29:47;;;;;;;12.57;11.47;;;;;;;;;;5112864;27;20463;-75
2021/04/28 13:32:32;;;;;;;12.13;11.03;;;;;;;;;;5118178;27;21135;-76
2021/04/28 13:35:10;;;;;;;11.50;10.50;;;;;;;;;;5133194;27;20764;-77
2021/04/28 13:37:36;;;;;;;12.03;10.90;;;;;;;;;;5133455;27;20438;-75
2021/04/28 13:40:17;;;;;;;12.37;11.30;;;;;;;;;;5133424;27;20422;-76
2021/04/28 13:42:44;;;;;;;12.07;11.07;;;;;;;;;;5113066;27;20425;-77
2021/04/28 13:45:10;;;;;;;13.07;11.77;;;;;;;;;;5146650;27;20455;-77
2021/04/28 13:47:36;;;;;;;11.20;10.30;;;;;;;;;;5129817;27;20457;-78
2021/04/28 13:50:02;;;;;;;13.13;11.90;;;;;;;;;;5128525;27;20498;-78
2021/04/28 13:52:28;;;;;;;12.37;11.17;;;;;;;;;;5111590;28;20415;-79
2021/04/28 13:54:54;;;;;;;12.23;10.50;;;;;;;;;;5112889;28;20566;-75
2021/04/28 13:57:20;;;;;;;11.83;10.63;;;;;;;;;;5108101;28;20964;-77
2021/04/28 13:59:46;;;;;;;11.17;10.07;;;;;;;;;;5117431;27;20426;-79
2021/04/28 14:02:12;;;;;;;13.27;10.00;;;;;;;;;;5116118;27;20464;-79
2021/04/28 14:04:38;;;;;;;11.23;10.23;;;;;;;;;;5131521;27;20488;-75
2021/04/28 14:07:04;;;;;;;12.00;10.90;;;;;;;;;;5130573;27;20473;-78
2021/04/28 14:09:30;;;;;;;11.40;10.40;;;;;;;;;;5112150;27;20416;-78
2021/04/28 14:11:56;;;;;;;10.63;9.73;;;;;;;;;;5100669;28;20417;-75
2021/04/28 14:14:22;;;;;;;10.97;9.97;;;;;;;;;;5124641;27;20911;-78
2021/04/28 14:16:48;;;;;;;45.13;40.40;;;;;;;;;;5104208;27;20440;-75
2021/04/28 14:19:14;;;;;;;15.50;13.83;;;;;;;;;;5111090;28;20905;-77
2021/04/28 14:21:40;;;;;;;12.57;10.97;;;;;;;;;;5096064;28;20424;-76
2021/04/28 14:24:06;;;;;;;12.17;11.00;;;;;;;;;;5111730;28;20992;-77
2021/04/28 14:26:32;;;;;;;11.70;10.60;;;;;;;;;;5106766;27;20426;-74
2021/04/28 14:28:58;;;;;;;12.70;10.00;;;;;;;;;;5108217;28;20551;-77
2021/04/28 14:31:24;;;;;;;13.13;10.70;;;;;;;;;;5112015;28;20416;-80
2021/04/28 14:33:53;;;;;;;12.67;11.10;;;;;;;;;;5110211;28;20424;-76
2021/04/28 14:36:19;;;;;;;12.13;11.03;;;;;;;;;;5111105;28;20419;-77
2021/04/28 14:38:45;;;;;;;11.03;10.10;;;;;;;;;;5125343;27;20431;-77
2021/04/28 14:41:11;;;;;;;14.50;13.00;;;;;;;;;;5111952;27;20426;-75